Allendale, Missouri
Current Conditions -  °F | °C
As of 3:00 AM on Thursday 23 Oct 2014 (Local Time) from KLWD Reporting Station
Moderate Rain Moderate Rain  
Wind Chill: 54°   Ceiling: 6000
Heat Index: 54°   Visibility: 7mi
Dew Point: 48°   Wind: 13mph
Humidity: 80%   Direction: 200°SSW
Pressure: 30.12"   Gusts: NA
Location:  40.49°N, 94.29°W
Report Text: KLWD 230800Z AUTO 20011KT 7SM RA SCT035 SCT045 OVC060 12/09 A3012 RMK AO2 P0002 T01220089
Loading
Personal Weather Stations






























Interactive Weather Map
Tropical Storm Tracking
New forecast layout! Learn more

10-Day Weather Forecast

Advertisements
Track Severe Weather on mobile